sensor_id;sensor_type;location;lat;lon;timestamp;temperature;humidity
32600;DHT22;19277;51.778;7.912;2023-02-01T00:00:00;20.20;68.60
32600;DHT22;19277;51.778;7.912;2023-02-01T00:02:25;20.20;68.80
32600;DHT22;19277;51.778;7.912;2023-02-01T00:04:51;20.20;68.80
32600;DHT22;19277;51.778;7.912;2023-02-01T00:07:17;20.20;68.90
32600;DHT22;19277;51.778;7.912;2023-02-01T00:09:42;20.20;69.00
32600;DHT22;19277;51.778;7.912;2023-02-01T00:12:08;20.20;69.10
32600;DHT22;19277;51.778;7.912;2023-02-01T00:14:34;20.20;69.20
32600;DHT22;19277;51.778;7.912;2023-02-01T00:17:04;20.20;69.30
32600;DHT22;19277;51.778;7.912;2023-02-01T00:19:31;20.30;69.40
32600;DHT22;19277;51.778;7.912;2023-02-01T00:21:57;20.20;69.50
32600;DHT22;19277;51.778;7.912;2023-02-01T00:24:22;20.20;69.60
32600;DHT22;19277;51.778;7.912;2023-02-01T00:26:48;20.30;69.70
32600;DHT22;19277;51.778;7.912;2023-02-01T00:29:16;20.30;69.90
32600;DHT22;19277;51.778;7.912;2023-02-01T00:31:42;20.30;70.10
32600;DHT22;19277;51.778;7.912;2023-02-01T00:34:14;20.30;70.10
32600;DHT22;19277;51.778;7.912;2023-02-01T00:36:40;20.30;70.10
32600;DHT22;19277;51.778;7.912;2023-02-01T00:39:06;20.30;70.30
32600;DHT22;19277;51.778;7.912;2023-02-01T00:41:32;20.30;70.30
32600;DHT22;19277;51.778;7.912;2023-02-01T00:43:57;20.30;70.40
32600;DHT22;19277;51.778;7.912;2023-02-01T00:46:23;20.30;70.40
32600;DHT22;19277;51.778;7.912;2023-02-01T00:48:49;20.30;70.30
32600;DHT22;19277;51.778;7.912;2023-02-01T00:51:20;20.30;70.40
32600;DHT22;19277;51.778;7.912;2023-02-01T00:53:46;20.30;70.40
32600;DHT22;19277;51.778;7.912;2023-02-01T00:56:12;20.30;70.50
32600;DHT22;19277;51.778;7.912;2023-02-01T00:58:38;20.30;70.70
32600;DHT22;19277;51.778;7.912;2023-02-01T01:01:09;20.20;70.70
32600;DHT22;19277;51.778;7.912;2023-02-01T01:03:37;20.20;70.80
32600;DHT22;19277;51.778;7.912;2023-02-01T01:06:06;20.30;70.90
32600;DHT22;19277;51.778;7.912;2023-02-01T01:08:33;20.30;71.00
32600;DHT22;19277;51.778;7.912;2023-02-01T01:10:59;20.30;71.00
32600;DHT22;19277;51.778;7.912;2023-02-01T01:13:24;20.30;71.10
32600;DHT22;19277;51.778;7.912;2023-02-01T01:15:50;20.30;71.20
32600;DHT22;19277;51.778;7.912;2023-02-01T01:18:16;20.30;71.30
32600;DHT22;19277;51.778;7.912;2023-02-01T01:20:41;20.30;71.30
32600;DHT22;19277;51.778;7.912;2023-02-01T01:23:08;20.30;71.40
32600;DHT22;19277;51.778;7.912;2023-02-01T01:25:40;20.30;71.50
32600;DHT22;19277;51.778;7.912;2023-02-01T01:28:06;20.30;71.50
32600;DHT22;19277;51.778;7.912;2023-02-01T01:30:34;20.30;71.60
32600;DHT22;19277;51.778;7.912;2023-02-01T01:33:00;20.20;71.70
32600;DHT22;19277;51.778;7.912;2023-02-01T01:35:28;20.30;71.80
32600;DHT22;19277;51.778;7.912;2023-02-01T01:37:53;20.30;71.70
32600;DHT22;19277;51.778;7.912;2023-02-01T01:40:19;20.30;71.80
32600;DHT22;19277;51.778;7.912;2023-02-01T01:42:44;20.30;71.70
32600;DHT22;19277;51.778;7.912;2023-02-01T01:45:35;20.30;71.70
32600;DHT22;19277;51.778;7.912;2023-02-01T01:48:25;20.30;71.80
32600;DHT22;19277;51.778;7.912;2023-02-01T01:50:57;20.30;71.80
32600;DHT22;19277;51.778;7.912;2023-02-01T01:53:33;20.40;71.80
32600;DHT22;19277;51.778;7.912;2023-02-01T01:56:01;20.40;71.90
32600;DHT22;19277;51.778;7.912;2023-02-01T01:58:28;20.40;71.90
32600;DHT22;19277;51.778;7.912;2023-02-01T02:00:55;20.40;71.90
32600;DHT22;19277;51.778;7.912;2023-02-01T02:03:25;20.40;71.90
32600;DHT22;19277;51.778;7.912;2023-02-01T02:05:53;20.40;71.90
32600;DHT22;19277;51.778;7.912;2023-02-01T02:08:21;20.40;71.80
32600;DHT22;19277;51.778;7.912;2023-02-01T02:10:51;20.40;71.80
32600;DHT22;19277;51.778;7.912;2023-02-01T02:13:35;20.40;71.90
32600;DHT22;19277;51.778;7.912;2023-02-01T02:24:38;20.40;71.70
32600;DHT22;19277;51.778;7.912;2023-02-01T02:27:50;20.50;71.80
32600;DHT22;19277;51.778;7.912;2023-02-01T02:33:38;20.40;72.00
32600;DHT22;19277;51.778;7.912;2023-02-01T02:39:27;20.40;72.50
32600;DHT22;19277;51.778;7.912;2023-02-01T02:42:08;20.40;72.70
32600;DHT22;19277;51.778;7.912;2023-02-01T02:48:03;20.40;73.30
32600;DHT22;19277;51.778;7.912;2023-02-01T02:50:37;20.40;73.40
32600;DHT22;19277;51.778;7.912;2023-02-01T02:56:17;20.40;73.40
32600;DHT22;19277;51.778;7.912;2023-02-01T02:59:03;20.40;73.50
32600;DHT22;19277;51.778;7.912;2023-02-01T03:01:49;20.40;73.90
32600;DHT22;19277;51.778;7.912;2023-02-01T03:04:33;20.40;74.00
32600;DHT22;19277;51.778;7.912;2023-02-01T03:09:57;20.40;74.20
32600;DHT22;19277;51.778;7.912;2023-02-01T03:12:23;20.40;74.60
32600;DHT22;19277;51.778;7.912;2023-02-01T03:15:10;20.40;74.80
32600;DHT22;19277;51.778;7.912;2023-02-01T03:17:39;20.40;75.00
32600;DHT22;19277;51.778;7.912;2023-02-01T03:20:07;20.40;75.20
32600;DHT22;19277;51.778;7.912;2023-02-01T03:22:37;20.40;75.40
32600;DHT22;19277;51.778;7.912;2023-02-01T03:25:11;20.40;75.50
32600;DHT22;19277;51.778;7.912;2023-02-01T03:28:06;20.40;75.60
32600;DHT22;19277;51.778;7.912;2023-02-01T03:30:52;20.40;75.60
32600;DHT22;19277;51.778;7.912;2023-02-01T03:33:20;20.40;75.10
32600;DHT22;19277;51.778;7.912;2023-02-01T03:36:09;20.40;74.80
32600;DHT22;19277;51.778;7.912;2023-02-01T03:41:28;20.40;74.40
32600;DHT22;19277;51.778;7.912;2023-02-01T03:44:24;20.40;74.30
32600;DHT22;19277;51.778;7.912;2023-02-01T03:47:16;20.40;74.30
32600;DHT22;19277;51.778;7.912;2023-02-01T03:49:43;20.40;74.20
32600;DHT22;19277;51.778;7.912;2023-02-01T03:52:13;20.40;74.10
32600;DHT22;19277;51.778;7.912;2023-02-01T03:54:40;20.40;74.10
32600;DHT22;19277;51.778;7.912;2023-02-01T03:57:09;20.50;74.10
32600;DHT22;19277;51.778;7.912;2023-02-01T03:59:44;20.50;74.20
32600;DHT22;19277;51.778;7.912;2023-02-01T04:02:10;20.50;74.10
32600;DHT22;19277;51.778;7.912;2023-02-01T04:04:37;20.50;74.00
32600;DHT22;19277;51.778;7.912;2023-02-01T04:07:02;20.50;74.00
32600;DHT22;19277;51.778;7.912;2023-02-01T04:09:28;20.50;73.90
32600;DHT22;19277;51.778;7.912;2023-02-01T04:11:54;20.50;73.90
32600;DHT22;19277;51.778;7.912;2023-02-01T04:14:19;20.50;73.80
32600;DHT22;19277;51.778;7.912;2023-02-01T04:16:45;20.50;73.90
32600;DHT22;19277;51.778;7.912;2023-02-01T04:19:11;20.50;73.80
32600;DHT22;19277;51.778;7.912;2023-02-01T04:21:36;20.50;73.80
32600;DHT22;19277;51.778;7.912;2023-02-01T04:24:02;20.50;73.80
32600;DHT22;19277;51.778;7.912;2023-02-01T04:26:28;20.60;73.80
32600;DHT22;19277;51.778;7.912;2023-02-01T04:28:53;20.60;73.80
32600;DHT22;19277;51.778;7.912;2023-02-01T04:31:19;20.50;73.80
32600;DHT22;19277;51.778;7.912;2023-02-01T04:33:54;20.60;73.80
32600;DHT22;19277;51.778;7.912;2023-02-01T04:36:23;20.60;73.80
32600;DHT22;19277;51.778;7.912;2023-02-01T04:38:52;20.60;73.80
32600;DHT22;19277;51.778;7.912;2023-02-01T04:41:18;20.60;73.90
32600;DHT22;19277;51.778;7.912;2023-02-01T04:43:47;20.50;74.20
32600;DHT22;19277;51.778;7.912;2023-02-01T04:46:13;20.50;74.20
32600;DHT22;19277;51.778;7.912;2023-02-01T04:48:39;20.50;74.10
32600;DHT22;19277;51.778;7.912;2023-02-01T04:51:05;20.50;74.10
32600;DHT22;19277;51.778;7.912;2023-02-01T04:53:30;20.50;74.20
32600;DHT22;19277;51.778;7.912;2023-02-01T04:55:56;20.50;74.20
32600;DHT22;19277;51.778;7.912;2023-02-01T04:58:21;20.50;74.70
32600;DHT22;19277;51.778;7.912;2023-02-01T05:00:47;20.50;74.60
32600;DHT22;19277;51.778;7.912;2023-02-01T05:03:13;20.50;74.80
32600;DHT22;19277;51.778;7.912;2023-02-01T05:05:39;20.50;75.00
32600;DHT22;19277;51.778;7.912;2023-02-01T05:08:05;20.50;75.00
32600;DHT22;19277;51.778;7.912;2023-02-01T05:10:31;20.50;75.20
32600;DHT22;19277;51.778;7.912;2023-02-01T05:12:56;20.50;75.40
32600;DHT22;19277;51.778;7.912;2023-02-01T05:15:41;20.50;75.50
32600;DHT22;19277;51.778;7.912;2023-02-01T05:18:06;20.50;75.50
32600;DHT22;19277;51.778;7.912;2023-02-01T05:20:32;20.60;76.30
32600;DHT22;19277;51.778;7.912;2023-02-01T05:22:57;20.60;75.70
32600;DHT22;19277;51.778;7.912;2023-02-01T05:25:23;20.60;75.60
32600;DHT22;19277;51.778;7.912;2023-02-01T05:27:48;20.60;75.50
32600;DHT22;19277;51.778;7.912;2023-02-01T05:30:14;20.60;75.50
32600;DHT22;19277;51.778;7.912;2023-02-01T05:32:40;20.70;75.70
32600;DHT22;19277;51.778;7.912;2023-02-01T05:35:06;20.70;75.80
32600;DHT22;19277;51.778;7.912;2023-02-01T05:37:31;20.70;75.70
32600;DHT22;19277;51.778;7.912;2023-02-01T05:39:57;20.70;75.90
32600;DHT22;19277;51.778;7.912;2023-02-01T05:42:22;20.70;76.00
32600;DHT22;19277;51.778;7.912;2023-02-01T05:44:48;20.70;76.10
32600;DHT22;19277;51.778;7.912;2023-02-01T05:47:14;20.80;76.30
32600;DHT22;19277;51.778;7.912;2023-02-01T05:49:39;20.70;76.30
32600;DHT22;19277;51.778;7.912;2023-02-01T05:52:05;20.80;76.40
32600;DHT22;19277;51.778;7.912;2023-02-01T05:54:31;20.70;76.60
32600;DHT22;19277;51.778;7.912;2023-02-01T05:56:56;20.80;77.10
32600;DHT22;19277;51.778;7.912;2023-02-01T05:59:22;20.80;76.90
32600;DHT22;19277;51.778;7.912;2023-02-01T06:01:47;20.80;77.10
32600;DHT22;19277;51.778;7.912;2023-02-01T06:04:13;20.80;77.20
32600;DHT22;19277;51.778;7.912;2023-02-01T06:06:39;20.80;77.00
32600;DHT22;19277;51.778;7.912;2023-02-01T06:09:04;20.80;77.10
32600;DHT22;19277;51.778;7.912;2023-02-01T06:11:30;20.80;77.20
32600;DHT22;19277;51.778;7.912;2023-02-01T06:13:55;20.80;77.30
32600;DHT22;19277;51.778;7.912;2023-02-01T06:16:22;20.90;77.00
32600;DHT22;19277;51.778;7.912;2023-02-01T06:18:48;20.90;76.60
32600;DHT22;19277;51.778;7.912;2023-02-01T06:21:14;20.90;76.60
32600;DHT22;19277;51.778;7.912;2023-02-01T06:23:49;20.90;76.60
32600;DHT22;19277;51.778;7.912;2023-02-01T06:26:15;20.90;76.40
32600;DHT22;19277;51.778;7.912;2023-02-01T06:28:42;20.90;76.50
32600;DHT22;19277;51.778;7.912;2023-02-01T06:31:08;20.90;76.40
32600;DHT22;19277;51.778;7.912;2023-02-01T06:33:34;20.90;76.40
32600;DHT22;19277;51.778;7.912;2023-02-01T06:36:02;20.90;76.20
32600;DHT22;19277;51.778;7.912;2023-02-01T06:38:29;20.90;76.20
32600;DHT22;19277;51.778;7.912;2023-02-01T06:40:56;20.90;76.10
32600;DHT22;19277;51.778;7.912;2023-02-01T06:43:23;20.90;75.90
32600;DHT22;19277;51.778;7.912;2023-02-01T06:45:49;20.90;75.90
32600;DHT22;19277;51.778;7.912;2023-02-01T06:48:15;20.90;76.00
32600;DHT22;19277;51.778;7.912;2023-02-01T06:50:41;20.90;75.90
32600;DHT22;19277;51.778;7.912;2023-02-01T06:53:06;20.90;75.90
32600;DHT22;19277;51.778;7.912;2023-02-01T06:55:32;20.90;75.80
32600;DHT22;19277;51.778;7.912;2023-02-01T06:57:57;21.00;76.30
32600;DHT22;19277;51.778;7.912;2023-02-01T07:00:23;20.90;76.10
32600;DHT22;19277;51.778;7.912;2023-02-01T07:02:50;21.00;76.30
32600;DHT22;19277;51.778;7.912;2023-02-01T07:05:16;21.00;76.20
32600;DHT22;19277;51.778;7.912;2023-02-01T07:07:42;21.00;76.10
32600;DHT22;19277;51.778;7.912;2023-02-01T07:10:08;21.00;76.00
32600;DHT22;19277;51.778;7.912;2023-02-01T07:12:34;21.00;75.90
32600;DHT22;19277;51.778;7.912;2023-02-01T07:15:01;21.00;75.90
32600;DHT22;19277;51.778;7.912;2023-02-01T07:17:28;21.10;76.00
32600;DHT22;19277;51.778;7.912;2023-02-01T07:19:55;21.10;76.00
32600;DHT22;19277;51.778;7.912;2023-02-01T07:22:20;21.10;75.90
32600;DHT22;19277;51.778;7.912;2023-02-01T07:24:46;21.10;76.00
32600;DHT22;19277;51.778;7.912;2023-02-01T07:27:11;21.10;76.00
32600;DHT22;19277;51.778;7.912;2023-02-01T07:29:37;21.10;75.90
32600;DHT22;19277;51.778;7.912;2023-02-01T07:32:02;21.10;75.90
32600;DHT22;19277;51.778;7.912;2023-02-01T07:34:28;21.20;76.40
32600;DHT22;19277;51.778;7.912;2023-02-01T07:36:55;21.20;75.80
32600;DHT22;19277;51.778;7.912;2023-02-01T07:39:21;21.10;75.70
32600;DHT22;19277;51.778;7.912;2023-02-01T07:41:46;21.20;75.60
32600;DHT22;19277;51.778;7.912;2023-02-01T07:44:12;21.20;75.60
32600;DHT22;19277;51.778;7.912;2023-02-01T07:46:37;21.20;75.80
32600;DHT22;19277;51.778;7.912;2023-02-01T07:49:04;21.20;75.90
32600;DHT22;19277;51.778;7.912;2023-02-01T07:51:30;21.20;75.70
32600;DHT22;19277;51.778;7.912;2023-02-01T07:53:56;21.20;75.60
32600;DHT22;19277;51.778;7.912;2023-02-01T07:56:22;21.20;75.50
32600;DHT22;19277;51.778;7.912;2023-02-01T07:58:52;21.30;75.50
32600;DHT22;19277;51.778;7.912;2023-02-01T08:01:20;21.30;75.40
32600;DHT22;19277;51.778;7.912;2023-02-01T08:06:18;21.30;75.40
32600;DHT22;19277;51.778;7.912;2023-02-01T08:08:45;21.30;75.30
32600;DHT22;19277;51.778;7.912;2023-02-01T08:11:12;21.40;75.30
32600;DHT22;19277;51.778;7.912;2023-02-01T08:13:38;21.40;75.40
32600;DHT22;19277;51.778;7.912;2023-02-01T08:16:06;21.40;75.30
32600;DHT22;19277;51.778;7.912;2023-02-01T08:18:32;21.40;75.00
32600;DHT22;19277;51.778;7.912;2023-02-01T08:21:12;21.40;74.80
32600;DHT22;19277;51.778;7.912;2023-02-01T08:23:39;21.40;74.60
32600;DHT22;19277;51.778;7.912;2023-02-01T08:26:19;21.40;74.40
32600;DHT22;19277;51.778;7.912;2023-02-01T08:28:54;21.40;74.20
32600;DHT22;19277;51.778;7.912;2023-02-01T08:31:21;21.40;74.20
32600;DHT22;19277;51.778;7.912;2023-02-01T08:33:50;21.40;74.10
32600;DHT22;19277;51.778;7.912;2023-02-01T08:36:17;21.40;74.10
32600;DHT22;19277;51.778;7.912;2023-02-01T08:38:43;21.40;74.50
32600;DHT22;19277;51.778;7.912;2023-02-01T08:41:11;21.50;74.70
32600;DHT22;19277;51.778;7.912;2023-02-01T08:43:38;20.30;55.60
32600;DHT22;19277;51.778;7.912;2023-02-01T08:46:04;18.80;57.30
32600;DHT22;19277;51.778;7.912;2023-02-01T08:48:30;17.40;58.00
32600;DHT22;19277;51.778;7.912;2023-02-01T08:50:56;16.50;60.60
32600;DHT22;19277;51.778;7.912;2023-02-01T08:53:22;15.70;60.80
32600;DHT22;19277;51.778;7.912;2023-02-01T08:55:47;15.20;62.40
32600;DHT22;19277;51.778;7.912;2023-02-01T08:58:13;14.80;64.80
32600;DHT22;19277;51.778;7.912;2023-02-01T09:00:40;14.60;66.30
32600;DHT22;19277;51.778;7.912;2023-02-01T09:03:07;14.40;63.80
32600;DHT22;19277;51.778;7.912;2023-02-01T09:05:34;14.20;64.40
32600;DHT22;19277;51.778;7.912;2023-02-01T09:08:00;13.90;64.90
32600;DHT22;19277;51.778;7.912;2023-02-01T09:10:26;13.60;65.40
32600;DHT22;19277;51.778;7.912;2023-02-01T09:12:51;13.40;66.60
32600;DHT22;19277;51.778;7.912;2023-02-01T09:15:17;13.30;66.80
32600;DHT22;19277;51.778;7.912;2023-02-01T09:17:43;13.20;67.90
32600;DHT22;19277;51.778;7.912;2023-02-01T09:20:09;13.20;67.10
32600;DHT22;19277;51.778;7.912;2023-02-01T09:22:35;13.10;67.30
32600;DHT22;19277;51.778;7.912;2023-02-01T09:25:00;13.00;68.80
32600;DHT22;19277;51.778;7.912;2023-02-01T09:27:26;13.40;74.90
32600;DHT22;19277;51.778;7.912;2023-02-01T09:29:52;14.20;73.40
32600;DHT22;19277;51.778;7.912;2023-02-01T09:32:22;15.10;72.20
32600;DHT22;19277;51.778;7.912;2023-02-01T09:34:49;15.90;71.00
32600;DHT22;19277;51.778;7.912;2023-02-01T09:37:15;16.60;70.10
32600;DHT22;19277;51.778;7.912;2023-02-01T09:39:41;17.10;69.40
32600;DHT22;19277;51.778;7.912;2023-02-01T09:45:14;18.00;68.80
32600;DHT22;19277;51.778;7.912;2023-02-01T09:47:53;18.40;68.50
32600;DHT22;19277;51.778;7.912;2023-02-01T09:50:22;18.70;68.10
32600;DHT22;19277;51.778;7.912;2023-02-01T09:58:24;19.30;67.50
32600;DHT22;19277;51.778;7.912;2023-02-01T10:00:56;19.50;67.50
32600;DHT22;19277;51.778;7.912;2023-02-01T10:03:25;19.60;67.60
32600;DHT22;19277;51.778;7.912;2023-02-01T10:06:04;19.70;67.60
32600;DHT22;19277;51.778;7.912;2023-02-01T10:14:10;20.00;67.60
32600;DHT22;19277;51.778;7.912;2023-02-01T10:17:04;20.20;68.10
32600;DHT22;19277;51.778;7.912;2023-02-01T10:19:56;20.20;68.30
32600;DHT22;19277;51.778;7.912;2023-02-01T10:22:45;20.30;68.10
32600;DHT22;19277;51.778;7.912;2023-02-01T10:27:41;20.40;68.10
32600;DHT22;19277;51.778;7.912;2023-02-01T10:32:43;20.50;68.10
32600;DHT22;19277;51.778;7.912;2023-02-01T10:35:17;20.60;68.10
32600;DHT22;19277;51.778;7.912;2023-02-01T10:37:44;20.60;68.20
32600;DHT22;19277;51.778;7.912;2023-02-01T10:40:20;20.70;68.30
32600;DHT22;19277;51.778;7.912;2023-02-01T10:42:48;20.70;68.40
32600;DHT22;19277;51.778;7.912;2023-02-01T10:45:20;20.70;68.30
32600;DHT22;19277;51.778;7.912;2023-02-01T10:47:48;20.70;68.30
32600;DHT22;19277;51.778;7.912;2023-02-01T10:50:44;20.80;68.30
32600;DHT22;19277;51.778;7.912;2023-02-01T10:53:17;20.80;68.40
32600;DHT22;19277;51.778;7.912;2023-02-01T10:55:51;20.80;68.40
32600;DHT22;19277;51.778;7.912;2023-02-01T10:58:28;20.90;68.40
32600;DHT22;19277;51.778;7.912;2023-02-01T11:01:03;20.90;68.70
32600;DHT22;19277;51.778;7.912;2023-02-01T11:03:39;21.00;68.60
32600;DHT22;19277;51.778;7.912;2023-02-01T11:08:51;21.10;68.60
32600;DHT22;19277;51.778;7.912;2023-02-01T11:11:19;21.10;68.50
32600;DHT22;19277;51.778;7.912;2023-02-01T11:13:52;21.10;68.60
32600;DHT22;19277;51.778;7.912;2023-02-01T11:16:18;21.10;68.70
32600;DHT22;19277;51.778;7.912;2023-02-01T11:18:44;21.10;68.70
32600;DHT22;19277;51.778;7.912;2023-02-01T11:21:10;21.20;68.80
32600;DHT22;19277;51.778;7.912;2023-02-01T11:23:43;21.10;69.10
32600;DHT22;19277;51.778;7.912;2023-02-01T11:26:19;21.10;69.00
32600;DHT22;19277;51.778;7.912;2023-02-01T11:29:09;21.20;69.00
32600;DHT22;19277;51.778;7.912;2023-02-01T11:31:36;21.20;68.80
32600;DHT22;19277;51.778;7.912;2023-02-01T11:34:17;21.10;68.60
32600;DHT22;19277;51.778;7.912;2023-02-01T11:36:46;21.10;68.60
32600;DHT22;19277;51.778;7.912;2023-02-01T11:42:00;21.20;68.40
32600;DHT22;19277;51.778;7.912;2023-02-01T11:44:42;21.20;68.50
32600;DHT22;19277;51.778;7.912;2023-02-01T11:49:51;21.20;68.80
32600;DHT22;19277;51.778;7.912;2023-02-01T12:00:43;21.30;69.00
32600;DHT22;19277;51.778;7.912;2023-02-01T12:06:31;21.30;69.10
32600;DHT22;19277;51.778;7.912;2023-02-01T12:12:14;21.30;70.00
32600;DHT22;19277;51.778;7.912;2023-02-01T12:31:12;21.50;70.10
32600;DHT22;19277;51.778;7.912;2023-02-01T12:39:32;21.50;70.20
32600;DHT22;19277;51.778;7.912;2023-02-01T12:42:14;21.50;70.10
32600;DHT22;19277;51.778;7.912;2023-02-01T12:44:50;21.50;70.10
32600;DHT22;19277;51.778;7.912;2023-02-01T12:47:31;21.50;70.30
32600;DHT22;19277;51.778;7.912;2023-02-01T12:50:22;21.60;70.30
32600;DHT22;19277;51.778;7.912;2023-02-01T12:52:54;21.60;70.30
32600;DHT22;19277;51.778;7.912;2023-02-01T12:55:42;21.60;70.40
32600;DHT22;19277;51.778;7.912;2023-02-01T12:58:17;21.60;70.40
32600;DHT22;19277;51.778;7.912;2023-02-01T13:00:52;21.70;70.50
32600;DHT22;19277;51.778;7.912;2023-02-01T13:06:10;21.70;70.50
32600;DHT22;19277;51.778;7.912;2023-02-01T13:09:27;21.70;70.60
32600;DHT22;19277;51.778;7.912;2023-02-01T13:11:33;21.80;70.80
32600;DHT22;19277;51.778;7.912;2023-02-01T13:16:39;21.80;70.70
32600;DHT22;19277;51.778;7.912;2023-02-01T13:19:24;21.80;70.80
32600;DHT22;19277;51.778;7.912;2023-02-01T13:21:59;21.80;71.00
32600;DHT22;19277;51.778;7.912;2023-02-01T13:24:32;21.80;71.10
32600;DHT22;19277;51.778;7.912;2023-02-01T13:26:58;21.80;71.10
32600;DHT22;19277;51.778;7.912;2023-02-01T13:29:24;21.80;71.10
32600;DHT22;19277;51.778;7.912;2023-02-01T13:35:07;21.80;71.30
32600;DHT22;19277;51.778;7.912;2023-02-01T13:37:59;21.80;71.50
32600;DHT22;19277;51.778;7.912;2023-02-01T13:43:38;21.80;71.70
32600;DHT22;19277;51.778;7.912;2023-02-01T13:46:08;21.80;71.70
32600;DHT22;19277;51.778;7.912;2023-02-01T13:48:51;21.90;71.90
32600;DHT22;19277;51.778;7.912;2023-02-01T13:51:33;21.90;72.00
32600;DHT22;19277;51.778;7.912;2023-02-01T13:53:59;21.90;72.10
32600;DHT22;19277;51.778;7.912;2023-02-01T13:56:26;21.90;72.20
32600;DHT22;19277;51.778;7.912;2023-02-01T13:58:51;21.90;72.20
32600;DHT22;19277;51.778;7.912;2023-02-01T14:06:40;22.00;72.40
32600;DHT22;19277;51.778;7.912;2023-02-01T14:11:55;22.10;72.40
32600;DHT22;19277;51.778;7.912;2023-02-01T14:19:29;22.20;71.90
32600;DHT22;19277;51.778;7.912;2023-02-01T14:24:54;22.10;71.70
32600;DHT22;19277;51.778;7.912;2023-02-01T14:27:24;22.20;71.90
32600;DHT22;19277;51.778;7.912;2023-02-01T14:29:52;22.20;71.70
32600;DHT22;19277;51.778;7.912;2023-02-01T14:32:31;22.20;71.80
32600;DHT22;19277;51.778;7.912;2023-02-01T14:35:00;21.60;57.90
32600;DHT22;19277;51.778;7.912;2023-02-01T14:37:30;20.20;58.40
32600;DHT22;19277;51.778;7.912;2023-02-01T14:40:05;19.10;58.80
32600;DHT22;19277;51.778;7.912;2023-02-01T14:47:43;16.90;63.40
32600;DHT22;19277;51.778;7.912;2023-02-01T14:52:45;16.10;65.40
32600;DHT22;19277;51.778;7.912;2023-02-01T14:55:49;15.80;65.70
32600;DHT22;19277;51.778;7.912;2023-02-01T14:58:35;15.70;66.90
32600;DHT22;19277;51.778;7.912;2023-02-01T15:04:03;15.20;67.70
32600;DHT22;19277;51.778;7.912;2023-02-01T15:09:20;15.00;68.40
32600;DHT22;19277;51.778;7.912;2023-02-01T15:14:45;16.00;72.60
32600;DHT22;19277;51.778;7.912;2023-02-01T15:17:26;16.80;71.50
32600;DHT22;19277;51.778;7.912;2023-02-01T15:19:58;17.50;70.50
32600;DHT22;19277;51.778;7.912;2023-02-01T15:22:25;18.10;69.80
32600;DHT22;19277;51.778;7.912;2023-02-01T15:24:56;18.50;69.00
32600;DHT22;19277;51.778;7.912;2023-02-01T15:27:22;18.90;68.60
32600;DHT22;19277;51.778;7.912;2023-02-01T15:29:48;19.30;68.30
32600;DHT22;19277;51.778;7.912;2023-02-01T15:32:34;19.50;68.20
32600;DHT22;19277;51.778;7.912;2023-02-01T15:35:01;19.80;67.90
32600;DHT22;19277;51.778;7.912;2023-02-01T15:37:27;19.90;67.70
32600;DHT22;19277;51.778;7.912;2023-02-01T15:40:23;20.10;67.60
32600;DHT22;19277;51.778;7.912;2023-02-01T15:42:54;20.20;67.50
32600;DHT22;19277;51.778;7.912;2023-02-01T15:45:26;20.30;67.40
32600;DHT22;19277;51.778;7.912;2023-02-01T15:47:54;20.40;67.50
32600;DHT22;19277;51.778;7.912;2023-02-01T15:50:21;20.50;67.60
32600;DHT22;19277;51.778;7.912;2023-02-01T15:52:49;20.50;67.60
32600;DHT22;19277;51.778;7.912;2023-02-01T15:55:20;20.60;67.70
32600;DHT22;19277;51.778;7.912;2023-02-01T15:57:48;20.60;67.80
32600;DHT22;19277;51.778;7.912;2023-02-01T16:00:26;20.70;67.80
32600;DHT22;19277;51.778;7.912;2023-02-01T16:03:01;20.70;67.90
32600;DHT22;19277;51.778;7.912;2023-02-01T16:05:34;20.80;68.00
32600;DHT22;19277;51.778;7.912;2023-02-01T16:08:13;20.80;68.00
32600;DHT22;19277;51.778;7.912;2023-02-01T16:10:42;20.90;68.20
32600;DHT22;19277;51.778;7.912;2023-02-01T16:13:09;20.80;68.10
32600;DHT22;19277;51.778;7.912;2023-02-01T16:15:35;20.90;68.20
32600;DHT22;19277;51.778;7.912;2023-02-01T16:18:00;20.90;68.30
32600;DHT22;19277;51.778;7.912;2023-02-01T16:20:26;20.90;68.40
32600;DHT22;19277;51.778;7.912;2023-02-01T16:22:52;20.90;68.40
32600;DHT22;19277;51.778;7.912;2023-02-01T16:25:17;20.90;68.60
32600;DHT22;19277;51.778;7.912;2023-02-01T16:27:43;20.90;68.50
32600;DHT22;19277;51.778;7.912;2023-02-01T16:30:09;20.90;68.60
32600;DHT22;19277;51.778;7.912;2023-02-01T16:32:36;21.00;68.60
32600;DHT22;19277;51.778;7.912;2023-02-01T16:35:20;21.00;68.70
32600;DHT22;19277;51.778;7.912;2023-02-01T16:37:47;21.00;68.70
32600;DHT22;19277;51.778;7.912;2023-02-01T16:40:14;21.00;68.70
32600;DHT22;19277;51.778;7.912;2023-02-01T16:42:40;21.10;68.80
32600;DHT22;19277;51.778;7.912;2023-02-01T16:45:06;21.00;68.70
32600;DHT22;19277;51.778;7.912;2023-02-01T16:47:34;21.10;68.80
32600;DHT22;19277;51.778;7.912;2023-02-01T16:50:01;21.10;68.90
32600;DHT22;19277;51.778;7.912;2023-02-01T16:52:27;21.10;68.90
32600;DHT22;19277;51.778;7.912;2023-02-01T16:54:52;21.10;69.20
32600;DHT22;19277;51.778;7.912;2023-02-01T16:57:20;21.10;69.40
32600;DHT22;19277;51.778;7.912;2023-02-01T16:59:49;21.20;69.90
32600;DHT22;19277;51.778;7.912;2023-02-01T17:02:18;21.20;69.40
32600;DHT22;19277;51.778;7.912;2023-02-01T17:04:47;21.20;69.40
32600;DHT22;19277;51.778;7.912;2023-02-01T17:07:18;21.20;69.50
32600;DHT22;19277;51.778;7.912;2023-02-01T17:09:44;21.20;69.40
32600;DHT22;19277;51.778;7.912;2023-02-01T17:12:24;21.30;70.10
32600;DHT22;19277;51.778;7.912;2023-02-01T17:14:51;21.30;69.60
32600;DHT22;19277;51.778;7.912;2023-02-01T17:17:18;21.30;69.60
32600;DHT22;19277;51.778;7.912;2023-02-01T17:19:49;21.30;69.60
32600;DHT22;19277;51.778;7.912;2023-02-01T17:22:17;21.40;69.70
32600;DHT22;19277;51.778;7.912;2023-02-01T17:24:43;21.30;69.60
32600;DHT22;19277;51.778;7.912;2023-02-01T17:27:09;21.30;69.60
32600;DHT22;19277;51.778;7.912;2023-02-01T17:29:35;21.40;69.90
32600;DHT22;19277;51.778;7.912;2023-02-01T17:32:01;21.40;69.90
32600;DHT22;19277;51.778;7.912;2023-02-01T17:34:27;21.40;69.90
32600;DHT22;19277;51.778;7.912;2023-02-01T17:36:53;21.40;69.80
32600;DHT22;19277;51.778;7.912;2023-02-01T17:39:19;21.40;69.80
32600;DHT22;19277;51.778;7.912;2023-02-01T17:42:04;21.40;69.80
32600;DHT22;19277;51.778;7.912;2023-02-01T17:44:31;21.40;69.80
32600;DHT22;19277;51.778;7.912;2023-02-01T17:46:57;21.50;69.80
32600;DHT22;19277;51.778;7.912;2023-02-01T17:49:24;21.50;69.80
32600;DHT22;19277;51.778;7.912;2023-02-01T17:51:49;21.50;69.90
32600;DHT22;19277;51.778;7.912;2023-02-01T17:54:15;21.50;69.90
32600;DHT22;19277;51.778;7.912;2023-02-01T17:56:43;21.50;70.00
32600;DHT22;19277;51.778;7.912;2023-02-01T17:59:08;21.50;70.00
32600;DHT22;19277;51.778;7.912;2023-02-01T18:01:35;21.50;70.00
32600;DHT22;19277;51.778;7.912;2023-02-01T18:04:02;21.50;69.90